createdAt,value
2022-10-01T00:00:50.100Z,17.85
2022-10-01T00:03:18.074Z,17.80
2022-10-01T00:05:31.491Z,17.78
2022-10-01T00:07:47.289Z,17.79
2022-10-01T00:10:00.637Z,17.79
2022-10-01T00:12:17.057Z,17.80
2022-10-01T00:14:30.738Z,17.79
2022-10-01T00:16:44.333Z,17.77
2022-10-01T00:18:59.234Z,17.78
2022-10-01T00:21:17.210Z,17.82
2022-10-01T00:23:30.546Z,17.82
2022-10-01T00:25:44.886Z,17.78
2022-10-01T00:27:58.484Z,17.71
2022-10-01T00:30:14.027Z,17.65
2022-10-01T00:32:28.301Z,17.63
2022-10-01T00:34:41.663Z,17.59
2022-10-01T00:36:54.857Z,17.56
2022-10-01T00:39:08.313Z,17.51
2022-10-01T00:41:22.263Z,17.51
2022-10-01T00:43:37.904Z,17.48
2022-10-01T00:45:51.902Z,17.45
2022-10-01T00:48:05.888Z,17.43
2022-10-01T00:50:26.030Z,17.39
2022-10-01T00:52:43.050Z,17.33
2022-10-01T00:54:58.830Z,17.28
2022-10-01T00:57:12.856Z,17.21
2022-10-01T00:59:26.849Z,17.15
2022-10-01T01:01:42.972Z,17.13
2022-10-01T01:03:56.841Z,17.09
2022-10-01T01:06:11.119Z,17.06
2022-10-01T01:08:24.735Z,17.03
2022-10-01T01:10:45.772Z,16.99
2022-10-01T01:13:12.606Z,16.93
2022-10-01T01:15:33.275Z,16.86
2022-10-01T01:17:55.737Z,16.79
2022-10-01T01:20:27.633Z,16.73
2022-10-01T01:22:48.124Z,16.69
2022-10-01T01:25:04.793Z,16.66
2022-10-01T01:27:30.432Z,16.63
2022-10-01T01:29:47.673Z,16.60
2022-10-01T01:32:04.732Z,16.57
2022-10-01T01:34:21.525Z,16.54
2022-10-01T01:36:39.457Z,16.50
2022-10-01T01:38:56.287Z,16.48
2022-10-01T01:41:12.246Z,16.45
2022-10-01T01:43:30.286Z,16.42
2022-10-01T01:45:46.513Z,16.41
2022-10-01T01:48:02.324Z,16.39
2022-10-01T01:50:17.946Z,16.37
2022-10-01T01:52:31.321Z,16.37
2022-10-01T01:54:45.624Z,16.39
2022-10-01T01:56:59.610Z,16.39
2022-10-01T01:59:13.021Z,16.39
2022-10-01T02:01:45.752Z,16.37
2022-10-01T02:03:59.536Z,16.34
2022-10-01T02:06:22.867Z,16.30
2022-10-01T02:08:47.404Z,16.25
2022-10-01T02:11:29.791Z,16.21
2022-10-01T02:13:53.701Z,16.16
2022-10-01T02:16:20.302Z,16.13
2022-10-01T02:18:43.839Z,16.08
2022-10-01T02:21:00.792Z,16.04
2022-10-01T02:23:17.051Z,15.99
2022-10-01T02:25:33.068Z,15.96
2022-10-01T02:27:52.004Z,15.93
2022-10-01T02:30:09.595Z,15.91
2022-10-01T02:32:25.677Z,15.86
2022-10-01T02:34:39.870Z,15.82
2022-10-01T02:36:54.832Z,15.78
2022-10-01T02:39:10.181Z,15.73
2022-10-01T02:41:28.936Z,15.69
2022-10-01T02:43:52.871Z,15.64
2022-10-01T02:46:14.797Z,15.60
2022-10-01T02:48:28.713Z,15.57
2022-10-01T02:50:52.128Z,15.55
2022-10-01T02:53:09.939Z,15.52
2022-10-01T02:55:30.182Z,15.49
2022-10-01T02:57:43.781Z,15.46
2022-10-01T02:59:58.890Z,15.43
2022-10-01T03:02:12.799Z,15.41
2022-10-01T03:04:26.406Z,15.39
2022-10-01T03:06:40.083Z,15.36
2022-10-01T03:08:53.625Z,15.34
2022-10-01T03:11:09.826Z,15.33
2022-10-01T03:13:24.781Z,15.31
2022-10-01T03:15:38.131Z,15.30
2022-10-01T03:17:53.996Z,15.29
2022-10-01T03:20:07.733Z,15.29
2022-10-01T03:22:23.784Z,15.27
2022-10-01T03:24:37.403Z,15.27
2022-10-01T03:26:50.862Z,15.27
2022-10-01T03:29:04.142Z,15.28
2022-10-01T03:31:17.833Z,15.30
2022-10-01T03:33:31.219Z,15.33
2022-10-01T03:35:45.277Z,15.34
2022-10-01T03:37:58.674Z,15.33
2022-10-01T03:40:14.194Z,15.34
2022-10-01T03:42:27.469Z,15.34
2022-10-01T03:44:41.006Z,15.34
2022-10-01T03:46:54.473Z,15.33
2022-10-01T03:49:08.196Z,15.34
2022-10-01T03:51:22.087Z,15.34
2022-10-01T03:53:36.122Z,15.33
2022-10-01T03:55:49.312Z,15.32
2022-10-01T03:58:03.577Z,15.30
2022-10-01T04:00:19.499Z,15.27
2022-10-01T04:02:32.931Z,15.25
2022-10-01T04:04:46.449Z,15.22
2022-10-01T04:06:59.727Z,15.21
2022-10-01T04:09:13.332Z,15.21
2022-10-01T04:11:27.243Z,15.19
2022-10-01T04:13:40.923Z,15.19
2022-10-01T04:15:54.573Z,15.22
2022-10-01T04:18:08.150Z,15.26
2022-10-01T04:20:21.643Z,15.30
2022-10-01T04:22:35.094Z,15.37
2022-10-01T04:24:48.461Z,15.42
2022-10-01T04:27:01.588Z,15.47
2022-10-01T04:29:15.026Z,15.51
2022-10-01T04:31:36.152Z,15.56
2022-10-01T04:33:49.852Z,15.65
2022-10-01T04:36:03.135Z,15.72
2022-10-01T04:38:19.310Z,15.79
2022-10-01T04:40:32.949Z,15.83
2022-10-01T04:42:48.415Z,15.85
2022-10-01T04:45:01.901Z,15.88
2022-10-01T04:47:15.534Z,15.90
2022-10-01T04:49:29.108Z,15.93
2022-10-01T04:51:42.373Z,15.95
2022-10-01T04:53:55.714Z,15.97
2022-10-01T04:56:09.197Z,15.99
2022-10-01T04:58:22.468Z,16.00
2022-10-01T05:00:35.858Z,16.01
2022-10-01T05:02:50.396Z,16.03
2022-10-01T05:05:04.861Z,16.05
2022-10-01T05:07:18.172Z,16.09
2022-10-01T05:09:31.746Z,16.14
2022-10-01T05:11:44.936Z,16.18
2022-10-01T05:13:58.420Z,16.23
2022-10-01T05:16:12.993Z,16.27
2022-10-01T05:18:26.289Z,16.31
2022-10-01T05:20:39.698Z,16.33
2022-10-01T05:22:53.021Z,16.36
2022-10-01T05:25:06.318Z,16.39
2022-10-01T05:27:19.523Z,16.41
2022-10-01T05:29:32.993Z,16.44
2022-10-01T05:31:46.176Z,16.47
2022-10-01T05:33:59.438Z,16.50
2022-10-01T05:36:13.225Z,16.51
2022-10-01T05:38:26.539Z,16.51
2022-10-01T05:40:40.365Z,16.48
2022-10-01T05:42:54.438Z,16.42
2022-10-01T05:45:07.787Z,16.41
2022-10-01T05:47:21.904Z,16.41
2022-10-01T05:49:35.195Z,16.41
2022-10-01T05:51:48.550Z,16.40
2022-10-01T05:54:02.443Z,16.40
2022-10-01T05:56:16.110Z,16.39
2022-10-01T05:58:29.365Z,16.38
2022-10-01T06:00:43.431Z,16.36
2022-10-01T06:02:59.012Z,16.32
2022-10-01T06:05:12.946Z,16.30
2022-10-01T06:07:26.281Z,16.26
2022-10-01T06:09:39.757Z,16.20
2022-10-01T06:11:53.162Z,16.18
2022-10-01T06:14:06.779Z,16.17
2022-10-01T06:16:20.517Z,16.17
2022-10-01T06:18:33.812Z,16.16
2022-10-01T06:20:47.418Z,16.15
2022-10-01T06:23:06.991Z,16.11
2022-10-01T06:25:20.611Z,16.07
2022-10-01T06:27:33.859Z,16.06
2022-10-01T06:29:47.099Z,16.06
2022-10-01T06:32:00.628Z,16.07
2022-10-01T06:34:13.925Z,16.09
2022-10-01T06:36:27.277Z,16.12
2022-10-01T06:38:40.608Z,16.17
2022-10-01T06:40:57.820Z,16.28
2022-10-01T06:43:11.428Z,16.39
2022-10-01T06:45:25.141Z,16.45
2022-10-01T06:47:39.098Z,16.49
2022-10-01T06:49:52.235Z,16.52
2022-10-01T06:52:21.641Z,16.56
2022-10-01T06:54:34.859Z,16.57
2022-10-01T06:56:48.262Z,16.57
2022-10-01T06:59:01.580Z,16.59
2022-10-01T07:01:15.733Z,16.63
2022-10-01T07:03:28.945Z,16.64
2022-10-01T07:05:42.486Z,16.66
2022-10-01T07:07:56.055Z,16.68
2022-10-01T07:10:11.518Z,16.71
2022-10-01T07:12:24.618Z,16.75
2022-10-01T07:14:37.969Z,16.77
2022-10-01T07:16:51.840Z,16.78
2022-10-01T07:19:05.071Z,16.78
2022-10-01T07:21:18.442Z,16.78
2022-10-01T07:23:31.695Z,16.78
2022-10-01T07:25:46.155Z,16.78
2022-10-01T07:28:03.547Z,16.76
2022-10-01T07:30:18.468Z,16.73
2022-10-01T07:32:32.821Z,16.70
2022-10-01T07:34:46.028Z,16.67
2022-10-01T07:36:59.157Z,16.65
2022-10-01T07:39:12.379Z,16.64
2022-10-01T07:41:26.664Z,16.62
2022-10-01T07:43:40.633Z,16.61
2022-10-01T07:45:56.324Z,16.60
2022-10-01T07:48:10.714Z,16.58
2022-10-01T07:50:24.053Z,16.57
2022-10-01T07:52:37.280Z,16.55
2022-10-01T07:54:50.962Z,16.54
2022-10-01T07:57:04.140Z,16.54
2022-10-01T07:59:17.940Z,16.49
2022-10-01T08:01:33.118Z,16.41
2022-10-01T08:03:46.508Z,16.31
2022-10-01T08:05:59.668Z,16.22
2022-10-01T08:08:13.609Z,16.14
2022-10-01T08:10:27.983Z,16.07
2022-10-01T08:12:41.322Z,16.02
2022-10-01T08:14:55.030Z,16.05
2022-10-01T08:17:08.272Z,16.10
2022-10-01T08:19:21.534Z,16.16
2022-10-01T08:21:37.054Z,16.22
2022-10-01T08:23:50.364Z,16.26
2022-10-01T08:26:08.657Z,16.27
2022-10-01T08:28:21.894Z,16.28
2022-10-01T08:30:35.738Z,16.31
2022-10-01T08:32:49.028Z,16.34
2022-10-01T08:35:02.486Z,16.35
2022-10-01T08:37:15.870Z,16.36
2022-10-01T08:39:29.111Z,16.38
2022-10-01T08:41:54.620Z,16.37
2022-10-01T08:44:09.560Z,16.38
2022-10-01T08:46:27.297Z,16.39
2022-10-01T08:48:57.343Z,16.38
2022-10-01T08:51:16.814Z,16.34
2022-10-01T08:53:38.531Z,16.28
2022-10-01T08:55:54.735Z,16.20
2022-10-01T08:58:10.423Z,16.12
2022-10-01T09:00:24.993Z,16.02
2022-10-01T09:02:39.298Z,15.94
2022-10-01T09:05:00.304Z,15.84
2022-10-01T09:07:30.924Z,15.75
2022-10-01T09:09:52.036Z,15.65
2022-10-01T09:12:21.023Z,15.55
2022-10-01T09:14:47.918Z,15.46
2022-10-01T09:17:12.071Z,15.38
2022-10-01T09:19:40.938Z,15.29
2022-10-01T09:22:03.427Z,15.20
2022-10-01T09:24:19.845Z,15.12
2022-10-01T09:26:33.126Z,15.11
2022-10-01T09:28:48.617Z,15.08
2022-10-01T09:31:07.196Z,15.07
2022-10-01T09:33:23.568Z,15.07
2022-10-01T09:35:46.492Z,15.06
2022-10-01T09:38:04.584Z,15.08
2022-10-01T09:40:27.073Z,15.10
2022-10-01T09:42:40.289Z,15.10
2022-10-01T09:44:55.215Z,15.11
2022-10-01T09:47:16.698Z,15.11
2022-10-01T09:49:36.674Z,15.10
2022-10-01T09:51:54.364Z,15.09
2022-10-01T09:54:16.540Z,15.08
2022-10-01T09:56:33.533Z,15.07
2022-10-01T09:58:51.338Z,15.07
2022-10-01T10:01:05.367Z,15.07
2022-10-01T10:03:29.954Z,15.10
2022-10-01T10:05:50.564Z,15.11
2022-10-01T10:08:07.938Z,15.12
2022-10-01T10:10:27.558Z,15.16
2022-10-01T10:12:41.180Z,15.18
2022-10-01T10:14:54.413Z,15.20
2022-10-01T10:17:15.206Z,15.23
2022-10-01T10:19:30.904Z,15.32
2022-10-01T10:21:53.329Z,15.39
2022-10-01T10:24:09.628Z,15.40
2022-10-01T10:26:29.810Z,15.48
2022-10-01T10:28:49.348Z,15.62
2022-10-01T10:31:03.665Z,15.72
2022-10-01T10:33:22.041Z,15.76
2022-10-01T10:35:35.578Z,15.77
2022-10-01T10:37:53.347Z,15.81
2022-10-01T10:40:09.688Z,15.81
2022-10-01T10:42:24.237Z,15.81
2022-10-01T10:44:40.863Z,15.79
2022-10-01T10:46:55.975Z,15.74
2022-10-01T10:49:15.744Z,15.68
2022-10-01T10:51:29.675Z,15.62
2022-10-01T10:53:52.431Z,15.56
2022-10-01T10:56:07.456Z,15.52
2022-10-01T10:58:21.360Z,15.53
2022-10-01T11:00:34.689Z,15.53
2022-10-01T11:02:57.462Z,15.55
2022-10-01T11:05:21.253Z,15.66
2022-10-01T11:07:35.738Z,15.79
2022-10-01T11:10:02.467Z,15.95
2022-10-01T11:12:27.394Z,16.11
2022-10-01T11:14:57.051Z,16.23
2022-10-01T11:17:43.491Z,16.32
2022-10-01T11:20:07.157Z,16.39
2022-10-01T11:22:39.648Z,16.41
2022-10-01T11:25:17.757Z,16.45
2022-10-01T11:27:38.388Z,16.49
2022-10-01T11:30:02.817Z,16.48
2022-10-01T11:32:26.663Z,16.44
2022-10-01T11:35:04.844Z,16.39
2022-10-01T11:37:33.031Z,16.34
2022-10-01T11:39:52.052Z,16.27
2022-10-01T11:42:09.068Z,16.20
2022-10-01T11:44:27.875Z,16.18
2022-10-01T11:46:54.688Z,16.23
2022-10-01T11:49:25.634Z,16.34
2022-10-01T11:51:43.369Z,16.39
2022-10-01T11:54:01.625Z,16.40
2022-10-01T11:56:43.211Z,16.36
2022-10-01T11:58:59.367Z,16.28
2022-10-01T12:01:18.275Z,16.20
2022-10-01T12:03:38.777Z,16.12
2022-10-01T12:05:52.984Z,16.04
2022-10-01T12:08:13.382Z,15.95
2022-10-01T12:10:40.582Z,15.84
2022-10-01T12:13:00.591Z,15.74
2022-10-01T12:15:21.292Z,15.68
2022-10-01T12:17:42.438Z,15.59
2022-10-01T12:19:58.551Z,15.53
2022-10-01T12:22:16.578Z,15.47
2022-10-01T12:24:35.323Z,15.40
2022-10-01T12:26:58.680Z,15.34
2022-10-01T12:29:18.054Z,15.29
2022-10-01T12:31:39.201Z,15.25
2022-10-01T12:34:13.571Z,15.21
2022-10-01T12:36:39.321Z,15.28
2022-10-01T12:39:04.997Z,15.35
2022-10-01T12:41:31.101Z,15.41
2022-10-01T12:44:04.596Z,15.50
2022-10-01T12:46:26.876Z,15.59
2022-10-01T12:48:48.808Z,15.63
2022-10-01T12:51:16.191Z,15.67
2022-10-01T12:53:42.329Z,15.71
2022-10-01T12:56:06.005Z,15.71
2022-10-01T12:58:34.414Z,15.73
2022-10-01T13:00:55.291Z,15.78
2022-10-01T13:03:42.676Z,15.79
2022-10-01T13:06:12.187Z,15.80
2022-10-01T13:08:44.120Z,15.94
2022-10-01T13:11:07.998Z,16.09
2022-10-01T13:13:26.389Z,16.20
2022-10-01T13:15:42.878Z,16.32
2022-10-01T13:18:01.098Z,16.42
2022-10-01T13:20:23.469Z,16.55
2022-10-01T13:22:44.739Z,16.69
2022-10-01T13:25:04.620Z,16.84
2022-10-01T13:27:24.377Z,16.96
2022-10-01T13:29:47.645Z,17.09
2022-10-01T13:32:02.776Z,17.25
2022-10-01T13:34:42.014Z,17.39
2022-10-01T13:36:55.439Z,17.51
2022-10-01T13:39:08.972Z,17.62
2022-10-01T13:41:28.820Z,17.73
2022-10-01T13:43:45.259Z,17.85
2022-10-01T13:46:00.055Z,17.94
2022-10-01T13:48:20.578Z,17.98
2022-10-01T13:50:34.192Z,18.02
2022-10-01T13:52:47.551Z,18.06
2022-10-01T13:55:02.229Z,18.12
2022-10-01T13:57:34.217Z,18.16
2022-10-01T13:59:47.568Z,18.18
2022-10-01T14:02:01.019Z,18.19
2022-10-01T14:04:25.502Z,18.23
2022-10-01T14:06:47.049Z,18.26
2022-10-01T14:09:07.418Z,18.27
2022-10-01T14:11:41.869Z,18.25
2022-10-01T14:14:12.326Z,18.24
2022-10-01T14:16:25.693Z,18.23
2022-10-01T14:18:43.102Z,18.22
2022-10-01T14:21:03.860Z,18.21
2022-10-01T14:23:19.896Z,18.20
2022-10-01T14:25:49.250Z,18.24
2022-10-01T14:28:18.995Z,18.25
2022-10-01T14:30:41.962Z,18.30
2022-10-01T14:33:21.864Z,18.32
2022-10-01T14:35:40.337Z,18.35
2022-10-01T14:37:54.004Z,18.41
2022-10-01T14:40:20.161Z,18.46
2022-10-01T14:42:33.407Z,18.52
2022-10-01T14:44:48.646Z,18.54
2022-10-01T14:47:03.403Z,18.56
2022-10-01T14:49:27.741Z,18.57
2022-10-01T14:51:52.805Z,18.59
2022-10-01T14:54:06.880Z,18.59
2022-10-01T14:56:20.595Z,18.57
2022-10-01T14:58:37.538Z,18.56
2022-10-01T15:00:55.599Z,18.53
2022-10-01T15:03:18.156Z,18.51
2022-10-01T15:05:29.863Z,18.48
2022-10-01T15:07:43.092Z,18.45
2022-10-01T15:09:56.571Z,18.44
2022-10-01T15:12:11.475Z,18.46
2022-10-01T15:14:28.336Z,18.47
2022-10-01T15:16:42.318Z,18.48
2022-10-01T15:18:58.571Z,18.51
2022-10-01T15:21:19.030Z,18.55
2022-10-01T15:23:34.252Z,18.56
2022-10-01T15:25:50.417Z,18.57
2022-10-01T15:28:03.842Z,18.56
2022-10-01T15:30:21.975Z,18.56
2022-10-01T15:32:35.419Z,18.55
2022-10-01T15:34:51.510Z,18.56
2022-10-01T15:37:05.601Z,18.57
2022-10-01T15:39:33.108Z,18.60
2022-10-01T15:41:48.098Z,18.62
2022-10-01T15:44:02.445Z,18.69
2022-10-01T15:46:34.205Z,18.74
2022-10-01T15:48:48.418Z,18.84
2022-10-01T15:51:05.919Z,18.88
2022-10-01T15:53:25.374Z,18.93
2022-10-01T15:55:44.548Z,18.99
2022-10-01T15:58:05.045Z,19.06
2022-10-01T16:00:29.268Z,19.10
2022-10-01T16:02:42.546Z,19.16
2022-10-01T16:04:57.963Z,19.18
2022-10-01T16:07:21.349Z,19.18
2022-10-01T16:09:35.336Z,19.19
2022-10-01T16:12:03.502Z,19.20
2022-10-01T16:14:31.846Z,19.23
2022-10-01T16:16:45.235Z,19.26
2022-10-01T16:19:03.323Z,19.29
2022-10-01T16:21:17.184Z,19.32
2022-10-01T16:23:50.930Z,19.36
2022-10-01T16:26:04.426Z,19.39
2022-10-01T16:28:30.833Z,19.43
2022-10-01T16:30:44.188Z,19.50
2022-10-01T16:32:57.753Z,19.56
2022-10-01T16:35:25.312Z,19.63
2022-10-01T16:37:38.665Z,19.72
2022-10-01T16:39:52.005Z,19.81
2022-10-01T16:42:22.670Z,19.91
2022-10-01T16:44:37.848Z,20.02
2022-10-01T16:46:51.263Z,20.13
2022-10-01T16:49:04.537Z,20.23
2022-10-01T16:51:18.626Z,20.33
2022-10-01T16:53:31.966Z,20.44
2022-10-01T16:55:46.094Z,20.57
2022-10-01T16:57:59.524Z,20.70
2022-10-01T17:00:14.501Z,20.81
2022-10-01T17:02:27.929Z,20.94
2022-10-01T17:04:41.245Z,21.04
2022-10-01T17:06:55.093Z,21.14
2022-10-01T17:09:08.307Z,21.23
2022-10-01T17:11:22.086Z,21.31
2022-10-01T17:13:36.637Z,21.39
2022-10-01T17:15:51.612Z,21.45
2022-10-01T17:18:05.303Z,21.52
2022-10-01T17:20:18.900Z,21.57
2022-10-01T17:22:32.932Z,21.63
2022-10-01T17:24:46.160Z,21.66
2022-10-01T17:26:59.396Z,21.67
2022-10-01T17:29:12.984Z,21.69
2022-10-01T17:31:28.548Z,21.72
2022-10-01T17:33:41.844Z,21.76
2022-10-01T17:35:56.854Z,21.80
2022-10-01T17:38:10.875Z,21.85
2022-10-01T17:40:24.710Z,21.89
2022-10-01T17:42:38.072Z,21.93
2022-10-01T17:44:51.425Z,21.98
2022-10-01T17:47:04.813Z,22.03
2022-10-01T17:49:18.090Z,22.09
2022-10-01T17:51:31.441Z,22.15
2022-10-01T17:53:44.877Z,22.25
2022-10-01T17:55:58.314Z,22.31
2022-10-01T17:58:11.537Z,22.36
2022-10-01T18:00:25.061Z,22.45
2022-10-01T18:02:42.154Z,22.54
2022-10-01T18:04:56.091Z,22.62
2022-10-01T18:07:09.899Z,22.69
2022-10-01T18:09:23.310Z,22.77
2022-10-01T18:11:37.163Z,22.84
2022-10-01T18:13:50.688Z,22.88
2022-10-01T18:16:10.199Z,22.91
2022-10-01T18:19:48.617Z,22.96
2022-10-01T18:20:57.074Z,23.00
2022-10-01T18:23:10.303Z,23.06
2022-10-01T18:25:23.800Z,23.17
2022-10-01T18:27:37.234Z,23.25
2022-10-01T18:29:50.500Z,23.30
2022-10-01T18:32:10.690Z,23.37
2022-10-01T18:34:29.839Z,23.51
2022-10-01T18:36:52.449Z,23.62
2022-10-01T18:39:17.689Z,23.73
2022-10-01T18:41:46.750Z,23.84
2022-10-01T18:44:00.052Z,23.97
2022-10-01T18:46:24.891Z,24.06
2022-10-01T18:49:03.541Z,24.14
2022-10-01T18:51:29.871Z,24.22
2022-10-01T18:53:59.918Z,24.31
2022-10-01T18:56:30.181Z,24.40
2022-10-01T18:59:09.882Z,24.48
2022-10-01T19:01:31.468Z,24.55
2022-10-01T19:04:11.623Z,24.62
2022-10-01T19:06:44.486Z,24.72
2022-10-01T19:09:10.906Z,24.82
2022-10-01T19:11:29.430Z,24.88
2022-10-01T19:13:52.182Z,24.93
2022-10-01T19:16:17.799Z,24.99
2022-10-01T19:18:50.155Z,25.04
2022-10-01T19:21:14.336Z,25.10
2022-10-01T19:23:43.395Z,25.15
2022-10-01T19:25:59.627Z,25.22
2022-10-01T19:28:23.832Z,25.28
2022-10-01T19:30:44.544Z,25.34
2022-10-01T19:33:06.825Z,25.42
2022-10-01T19:35:24.258Z,25.49
2022-10-01T19:37:44.779Z,25.53
2022-10-01T19:40:01.620Z,25.58
2022-10-01T19:42:22.290Z,25.65
2022-10-01T19:44:45.459Z,25.70
2022-10-01T19:47:04.638Z,25.76
2022-10-01T19:49:25.079Z,25.83
2022-10-01T19:51:42.020Z,25.90
2022-10-01T19:54:02.111Z,25.94
2022-10-01T19:56:21.258Z,26.00
2022-10-01T19:58:35.679Z,26.05
2022-10-01T20:00:50.395Z,26.10
2022-10-01T20:03:14.146Z,26.15
2022-10-01T20:05:33.257Z,26.22
2022-10-01T20:07:59.038Z,26.29
2022-10-01T20:10:22.808Z,26.35
2022-10-01T20:12:46.150Z,26.43
2022-10-01T20:15:14.610Z,26.49
2022-10-01T20:17:34.325Z,26.55
2022-10-01T20:19:54.703Z,26.57
2022-10-01T20:22:14.901Z,26.58
2022-10-01T20:24:44.523Z,26.60
2022-10-01T20:27:06.162Z,26.64
2022-10-01T20:29:33.445Z,26.71
2022-10-01T20:31:56.327Z,26.76
2022-10-01T20:34:22.583Z,26.83
2022-10-01T20:36:42.619Z,26.90
2022-10-01T20:39:05.607Z,27.00
2022-10-01T20:41:22.727Z,27.10
2022-10-01T20:43:45.979Z,27.21
2022-10-01T20:46:01.068Z,27.27
2022-10-01T20:48:23.212Z,27.32
2022-10-01T20:50:41.022Z,27.37
2022-10-01T20:53:06.567Z,27.40
2022-10-01T20:55:27.791Z,27.42
2022-10-01T20:57:48.242Z,27.44
2022-10-01T21:00:06.476Z,27.45
2022-10-01T21:02:36.165Z,27.44
2022-10-01T21:04:55.565Z,27.44
2022-10-01T21:07:31.308Z,27.46
2022-10-01T21:09:49.930Z,27.47
2022-10-01T21:12:10.626Z,27.47
2022-10-01T21:14:29.774Z,27.52
2022-10-01T21:17:06.448Z,27.59
2022-10-01T21:19:32.425Z,27.57
2022-10-01T21:21:56.202Z,27.55
2022-10-01T21:24:22.652Z,27.56
2022-10-01T21:26:48.099Z,27.61
2022-10-01T21:29:23.329Z,27.67
2022-10-01T21:31:46.285Z,27.73
2022-10-01T21:34:05.560Z,27.79
2022-10-01T21:36:25.059Z,27.86
2022-10-01T21:38:48.009Z,27.97
2022-10-01T21:41:14.639Z,28.12
2022-10-01T21:43:40.259Z,28.23
2022-10-01T21:46:03.463Z,28.27
2022-10-01T21:48:38.287Z,28.29
2022-10-01T21:51:09.832Z,28.31
2022-10-01T21:53:50.760Z,28.31
2022-10-01T21:56:20.909Z,28.33
2022-10-01T21:58:49.868Z,28.39
2022-10-01T22:01:11.650Z,28.47
2022-10-01T22:03:32.565Z,28.55
2022-10-01T22:05:51.352Z,28.63
2022-10-01T22:08:16.367Z,28.62
2022-10-01T22:10:37.875Z,28.65
2022-10-01T22:12:56.430Z,28.74
2022-10-01T22:15:18.843Z,28.86
2022-10-01T22:17:35.570Z,28.88
2022-10-01T22:19:52.515Z,28.92
2022-10-01T22:22:12.817Z,28.99
2022-10-01T22:24:35.457Z,29.04
2022-10-01T22:26:55.095Z,29.03
2022-10-01T22:29:11.286Z,29.05
2022-10-01T22:31:29.738Z,29.03
2022-10-01T22:33:49.242Z,29.02
2022-10-01T22:36:09.827Z,29.04
2022-10-01T22:38:29.807Z,28.98
2022-10-01T22:40:48.578Z,28.93
2022-10-01T22:43:09.703Z,28.88
2022-10-01T22:45:27.046Z,28.80
2022-10-01T22:48:02.228Z,28.76
2022-10-01T22:50:26.373Z,28.79
2022-10-01T22:52:47.304Z,28.79
2022-10-01T22:55:13.493Z,28.76
2022-10-01T22:57:46.720Z,28.75
2022-10-01T23:00:06.637Z,28.80
2022-10-01T23:02:28.223Z,28.82
2022-10-01T23:04:53.888Z,28.82
2022-10-01T23:07:17.297Z,28.81
2022-10-01T23:09:35.912Z,28.82
2022-10-01T23:11:59.697Z,28.85
2022-10-01T23:14:25.727Z,28.85
2022-10-01T23:16:47.762Z,28.96
2022-10-01T23:19:10.803Z,28.94
2022-10-01T23:21:35.774Z,28.89
2022-10-01T23:23:57.749Z,28.83
2022-10-01T23:26:30.917Z,28.79
2022-10-01T23:28:55.099Z,28.78
2022-10-01T23:31:19.062Z,28.78
2022-10-01T23:33:53.115Z,28.76
2022-10-01T23:36:18.504Z,28.73
2022-10-01T23:38:54.670Z,28.71
2022-10-01T23:41:13.501Z,28.73
2022-10-01T23:43:35.900Z,28.72
2022-10-01T23:45:53.094Z,28.72
2022-10-01T23:48:14.208Z,28.69
2022-10-01T23:50:36.851Z,28.67
2022-10-01T23:52:55.660Z,28.64
2022-10-01T23:55:33.870Z,28.62
2022-10-01T23:57:47.782Z,28.56
